createdAt,value
2022-09-18T00:01:02.016Z,99.81
2022-09-18T00:03:28.698Z,98.70
2022-09-18T00:05:55.062Z,98.78
2022-09-18T00:08:21.532Z,98.42
2022-09-18T00:10:47.982Z,98.42
2022-09-18T00:13:15.028Z,99.26
2022-09-18T00:15:41.862Z,99.29
2022-09-18T00:18:08.985Z,98.62
2022-09-18T00:20:36.915Z,98.28
2022-09-18T00:23:04.041Z,98.57
2022-09-18T00:25:32.071Z,98.88
2022-09-18T00:27:58.523Z,99.62
2022-09-18T00:30:24.940Z,100.00
2022-09-18T00:32:51.287Z,99.65
2022-09-18T00:35:17.722Z,98.75
2022-09-18T00:37:44.143Z,99.00
2022-09-18T00:40:10.957Z,99.14
2022-09-18T00:42:37.474Z,98.95
2022-09-18T00:45:04.411Z,99.07
2022-09-18T00:47:52.276Z,98.87
2022-09-18T00:50:24.442Z,99.31
2022-09-18T00:52:56.782Z,100.00
2022-09-18T00:55:28.725Z,99.57
2022-09-18T00:57:57.664Z,100.00
2022-09-18T01:00:24.637Z,99.58
2022-09-18T01:02:51.256Z,99.57
2022-09-18T01:06:06.312Z,99.21
2022-09-18T01:08:56.553Z,100.00
2022-09-18T01:11:36.908Z,100.00
2022-09-18T01:14:23.485Z,98.41
2022-09-18T01:17:01.781Z,98.28
2022-09-18T01:19:46.414Z,97.64
2022-09-18T01:22:44.926Z,97.70
2022-09-18T01:25:38.544Z,97.62
2022-09-18T01:28:13.893Z,98.66
2022-09-18T01:30:44.706Z,97.98
2022-09-18T01:33:19.627Z,98.86
2022-09-18T01:35:52.756Z,98.06
2022-09-18T01:38:26.840Z,98.17
2022-09-18T01:40:58.829Z,99.14
2022-09-18T01:43:28.628Z,98.44
2022-09-18T01:45:58.473Z,99.04
2022-09-18T01:48:36.912Z,98.50
2022-09-18T01:51:20.467Z,98.16
2022-09-18T01:53:52.865Z,97.06
2022-09-18T01:56:28.060Z,96.66
2022-09-18T01:58:58.948Z,97.61
2022-09-18T02:01:37.878Z,97.24
2022-09-18T02:04:09.989Z,97.75
2022-09-18T02:06:44.416Z,96.71
2022-09-18T02:09:12.835Z,97.41
2022-09-18T02:11:44.887Z,97.74
2022-09-18T02:14:19.510Z,99.44
2022-09-18T02:17:37.776Z,99.04
2022-09-18T02:20:13.725Z,98.40
2022-09-18T02:22:45.349Z,98.45
2022-09-18T02:25:15.132Z,98.88
2022-09-18T02:27:43.450Z,98.68
2022-09-18T02:30:10.895Z,97.62
2022-09-18T02:32:39.124Z,97.81
2022-09-18T02:35:08.673Z,98.32
2022-09-18T02:37:42.532Z,97.55
2022-09-18T02:40:19.117Z,97.29
2022-09-18T02:42:51.138Z,97.21
2022-09-18T02:45:35.923Z,98.63
2022-09-18T02:48:24.991Z,97.36
2022-09-18T02:51:03.884Z,97.47
2022-09-18T02:53:51.897Z,97.36
2022-09-18T02:56:39.197Z,97.41
2022-09-18T02:59:13.021Z,97.81
2022-09-18T03:01:43.800Z,98.08
2022-09-18T03:04:14.309Z,98.44
2022-09-18T03:06:56.219Z,98.76
2022-09-18T03:09:24.128Z,98.15
2022-09-18T03:11:50.845Z,99.65
2022-09-18T03:14:18.848Z,99.69
2022-09-18T03:16:45.188Z,99.11
2022-09-18T03:19:14.201Z,99.20
2022-09-18T03:21:42.358Z,98.63
2022-09-18T03:24:10.826Z,98.69
2022-09-18T03:26:40.800Z,98.43
2022-09-18T03:29:09.006Z,99.38
2022-09-18T03:31:35.837Z,100.00
2022-09-18T03:34:04.081Z,99.94
2022-09-18T03:36:30.488Z,99.49
2022-09-18T03:38:57.999Z,99.12
2022-09-18T03:41:24.853Z,99.21
2022-09-18T03:43:51.992Z,100.00
2022-09-18T03:46:23.325Z,99.19
2022-09-18T03:48:53.185Z,98.64
2022-09-18T03:51:21.665Z,99.18
2022-09-18T03:53:48.993Z,99.26
2022-09-18T03:56:37.131Z,98.79
2022-09-18T03:59:25.400Z,98.22
2022-09-18T04:02:00.651Z,99.12
2022-09-18T04:04:27.622Z,99.89
2022-09-18T04:07:12.556Z,99.00
2022-09-18T04:09:41.553Z,100.00
2022-09-18T04:12:08.645Z,99.50
2022-09-18T04:14:35.481Z,99.00
2022-09-18T04:17:01.937Z,98.84
2022-09-18T04:19:29.739Z,98.65
2022-09-18T04:21:57.337Z,98.83
2022-09-18T04:24:23.795Z,98.18
2022-09-18T04:26:50.169Z,97.84
2022-09-18T04:29:19.745Z,97.56
2022-09-18T04:31:50.029Z,97.71
2022-09-18T04:34:17.552Z,97.40
2022-09-18T04:36:44.085Z,97.78
2022-09-18T04:39:10.584Z,98.63
2022-09-18T04:41:37.043Z,98.31
2022-09-18T04:44:04.892Z,98.18
2022-09-18T04:46:31.420Z,97.85
2022-09-18T04:48:59.621Z,98.28
2022-09-18T04:51:27.698Z,98.08
2022-09-18T04:53:54.204Z,98.40
2022-09-18T04:56:22.274Z,99.01
2022-09-18T04:58:51.112Z,100.00
2022-09-18T05:01:17.822Z,100.00
2022-09-18T05:03:44.368Z,99.86
2022-09-18T05:06:18.001Z,99.73
2022-09-18T05:08:45.310Z,99.23
2022-09-18T05:11:11.741Z,99.65
2022-09-18T05:13:40.025Z,99.64
2022-09-18T05:16:13.487Z,99.54
2022-09-18T05:18:41.755Z,98.88
2022-09-18T05:21:08.140Z,98.57
2022-09-18T05:23:34.686Z,99.68
2022-09-18T05:26:02.290Z,99.48
2022-09-18T05:28:28.677Z,99.15
2022-09-18T05:31:00.664Z,98.84
2022-09-18T05:33:33.373Z,98.31
2022-09-18T05:36:00.131Z,98.68
2022-09-18T05:38:26.888Z,99.22
2022-09-18T05:40:53.799Z,98.52
2022-09-18T05:43:20.163Z,98.92
2022-09-18T05:45:48.878Z,99.08
2022-09-18T05:48:20.702Z,98.48
2022-09-18T05:50:48.307Z,98.06
2022-09-18T05:53:21.365Z,97.88
2022-09-18T05:56:23.260Z,98.38
2022-09-18T05:58:49.710Z,98.25
2022-09-18T06:01:16.855Z,98.24
2022-09-18T06:04:21.443Z,98.00
2022-09-18T06:07:05.281Z,98.88
2022-09-18T06:09:31.937Z,98.06
2022-09-18T06:11:59.224Z,98.24
2022-09-18T06:14:25.707Z,98.31
2022-09-18T06:16:52.118Z,98.36
2022-09-18T06:19:18.536Z,99.07
2022-09-18T06:21:47.526Z,98.99
2022-09-18T06:24:16.816Z,99.80
2022-09-18T06:26:49.721Z,100.00
2022-09-18T06:29:16.089Z,100.00
2022-09-18T06:31:49.919Z,100.00
2022-09-18T06:34:21.969Z,100.00
2022-09-18T06:36:48.777Z,100.00
2022-09-18T06:39:24.649Z,100.00
2022-09-18T06:41:55.424Z,100.00
2022-09-18T06:44:42.316Z,100.00
2022-09-18T06:47:08.868Z,100.00
2022-09-18T06:49:40.439Z,100.00
2022-09-18T06:52:06.912Z,100.00
2022-09-18T06:54:35.749Z,100.00
2022-09-18T06:57:02.463Z,100.00
2022-09-18T06:59:30.823Z,100.00
2022-09-18T07:01:57.567Z,100.00
2022-09-18T07:04:47.449Z,100.00
2022-09-18T07:07:16.309Z,100.00
2022-09-18T07:09:45.774Z,100.00
2022-09-18T07:12:23.584Z,100.00
2022-09-18T07:14:53.822Z,100.00
2022-09-18T07:17:25.662Z,100.00
2022-09-18T07:19:53.710Z,100.00
2022-09-18T07:22:24.008Z,100.00
2022-09-18T07:24:50.742Z,100.00
2022-09-18T07:27:17.175Z,100.00
2022-09-18T07:29:43.845Z,100.00
2022-09-18T07:32:13.763Z,100.00
2022-09-18T07:34:43.652Z,100.00
2022-09-18T07:37:12.453Z,100.00
2022-09-18T07:39:41.157Z,100.00
2022-09-18T07:42:30.374Z,100.00
2022-09-18T07:44:56.716Z,100.00
2022-09-18T07:47:25.195Z,100.00
2022-09-18T07:49:52.289Z,100.00
2022-09-18T07:52:19.204Z,100.00
2022-09-18T07:54:50.883Z,100.00
2022-09-18T07:57:32.657Z,100.00
2022-09-18T08:00:33.198Z,100.00
2022-09-18T08:03:11.806Z,100.00
2022-09-18T08:05:57.558Z,100.00
2022-09-18T08:08:24.376Z,100.00
2022-09-18T08:11:29.072Z,100.00
2022-09-18T08:14:03.412Z,100.00
2022-09-18T08:16:44.452Z,100.00
2022-09-18T08:19:33.734Z,100.00
2022-09-18T08:22:08.053Z,100.00
2022-09-18T08:24:37.401Z,100.00
2022-09-18T08:27:04.420Z,100.00
2022-09-18T08:29:32.112Z,100.00
2022-09-18T08:32:06.523Z,100.00
2022-09-18T08:34:36.225Z,100.00
2022-09-18T08:37:02.666Z,100.00
2022-09-18T08:39:52.201Z,100.00
2022-09-18T08:42:58.103Z,100.00
2022-09-18T08:46:00.595Z,100.00
2022-09-18T08:48:56.529Z,100.00
2022-09-18T08:51:30.680Z,100.00
2022-09-18T08:54:15.203Z,100.00
2022-09-18T08:57:03.547Z,100.00
2022-09-18T08:59:46.109Z,100.00
2022-09-18T09:02:42.619Z,100.00
2022-09-18T09:05:16.692Z,100.00
2022-09-18T09:08:09.876Z,100.00
2022-09-18T09:10:55.873Z,100.00
2022-09-18T09:13:50.256Z,100.00
2022-09-18T09:16:28.490Z,100.00
2022-09-18T09:19:00.135Z,100.00
2022-09-18T09:21:54.869Z,100.00
2022-09-18T09:24:34.421Z,100.00
2022-09-18T09:27:18.132Z,100.00
2022-09-18T09:30:19.859Z,100.00
2022-09-18T09:33:23.268Z,100.00
2022-09-18T09:36:24.075Z,100.00
2022-09-18T09:39:08.367Z,100.00
2022-09-18T09:41:40.304Z,100.00
2022-09-18T09:44:18.806Z,100.00
2022-09-18T09:47:05.203Z,100.00
2022-09-18T09:49:55.942Z,100.00
2022-09-18T09:52:25.150Z,100.00
2022-09-18T09:54:55.396Z,100.00
2022-09-18T09:57:48.977Z,100.00
2022-09-18T10:00:18.262Z,100.00
2022-09-18T10:02:58.369Z,100.00
2022-09-18T10:05:58.099Z,100.00
2022-09-18T10:08:46.915Z,100.00
2022-09-18T10:11:15.822Z,100.00
2022-09-18T10:13:53.579Z,100.00
2022-09-18T10:16:29.471Z,100.00
2022-09-18T10:19:00.072Z,100.00
2022-09-18T10:21:37.029Z,100.00
2022-09-18T10:24:29.897Z,100.00
2022-09-18T10:27:09.558Z,100.00
2022-09-18T10:29:36.289Z,100.00
2022-09-18T10:32:06.758Z,100.00
2022-09-18T10:34:49.419Z,100.00
2022-09-18T10:37:28.429Z,100.00
2022-09-18T10:40:01.336Z,100.00
2022-09-18T10:42:33.879Z,100.00
2022-09-18T10:45:37.930Z,100.00
2022-09-18T10:48:24.140Z,100.00
2022-09-18T10:50:56.295Z,100.00
2022-09-18T10:53:32.767Z,100.00
2022-09-18T10:56:20.016Z,100.00
2022-09-18T10:58:47.973Z,100.00
2022-09-18T11:01:15.172Z,100.00
2022-09-18T11:04:06.521Z,100.00
2022-09-18T11:06:37.116Z,100.00
2022-09-18T11:09:18.425Z,100.00
2022-09-18T11:11:51.212Z,100.00
2022-09-18T11:14:26.047Z,100.00
2022-09-18T11:17:02.195Z,100.00
2022-09-18T11:19:40.598Z,100.00
2022-09-18T11:22:44.188Z,100.00
2022-09-18T11:25:29.361Z,100.00
2022-09-18T11:28:01.870Z,100.00
2022-09-18T11:30:36.131Z,98.85
2022-09-18T11:33:26.190Z,100.00
2022-09-18T11:36:07.747Z,100.00
2022-09-18T11:38:45.901Z,99.46
2022-09-18T11:41:23.069Z,98.85
2022-09-18T11:44:04.585Z,96.84
2022-09-18T11:47:10.882Z,96.43
2022-09-18T11:49:43.392Z,95.86
2022-09-18T11:52:27.743Z,96.97
2022-09-18T11:55:16.923Z,97.51
2022-09-18T11:57:48.648Z,97.50
2022-09-18T12:00:23.077Z,97.62
2022-09-18T12:03:04.761Z,97.53
2022-09-18T12:05:38.688Z,97.36
2022-09-18T12:08:21.739Z,97.29
2022-09-18T12:11:28.152Z,95.42
2022-09-18T12:14:20.563Z,96.08
2022-09-18T12:17:32.328Z,98.86
2022-09-18T12:20:18.396Z,97.19
2022-09-18T12:22:52.234Z,96.20
2022-09-18T12:25:32.293Z,97.32
2022-09-18T12:28:39.840Z,96.36
2022-09-18T12:31:13.312Z,93.57
2022-09-18T12:34:30.064Z,94.14
2022-09-18T12:37:16.261Z,94.29
2022-09-18T12:39:59.769Z,93.86
2022-09-18T12:42:28.911Z,91.78
2022-09-18T12:45:20.459Z,92.97
2022-09-18T12:48:18.657Z,92.68
2022-09-18T12:51:03.590Z,91.99
2022-09-18T12:53:48.842Z,93.86
2022-09-18T12:56:38.334Z,93.79
2022-09-18T12:59:20.072Z,90.81
2022-09-18T13:02:12.772Z,91.60
2022-09-18T13:04:46.571Z,91.33
2022-09-18T13:07:28.348Z,92.00
2022-09-18T13:10:16.217Z,91.48
2022-09-18T13:13:11.927Z,91.98
2022-09-18T13:15:54.194Z,92.11
2022-09-18T13:18:32.450Z,92.81
2022-09-18T13:21:00.592Z,93.15
2022-09-18T13:23:31.160Z,92.24
2022-09-18T13:25:59.177Z,90.62
2022-09-18T13:28:27.766Z,90.70
2022-09-18T13:31:32.440Z,91.30
2022-09-18T13:34:14.319Z,90.84
2022-09-18T13:36:43.992Z,91.34
2022-09-18T13:39:37.629Z,92.75
2022-09-18T13:42:12.608Z,91.48
2022-09-18T13:44:39.069Z,91.44
2022-09-18T13:47:13.040Z,93.20
2022-09-18T13:49:51.108Z,95.25
2022-09-18T13:52:33.958Z,94.35
2022-09-18T13:55:12.499Z,95.04
2022-09-18T13:57:43.535Z,93.26
2022-09-18T14:00:19.035Z,92.98
2022-09-18T14:03:08.832Z,93.34
2022-09-18T14:05:42.586Z,92.89
2022-09-18T14:08:24.248Z,92.84
2022-09-18T14:11:14.965Z,92.52
2022-09-18T14:13:55.302Z,92.17
2022-09-18T14:16:23.737Z,93.76
2022-09-18T14:18:50.159Z,95.55
2022-09-18T14:21:44.159Z,95.09
2022-09-18T14:24:25.154Z,94.77
2022-09-18T14:26:57.212Z,95.05
2022-09-18T14:29:27.915Z,95.19
2022-09-18T14:31:57.690Z,94.63
2022-09-18T14:34:37.930Z,95.82
2022-09-18T14:37:32.856Z,94.18
2022-09-18T14:39:59.736Z,95.34
2022-09-18T14:42:33.816Z,95.40
2022-09-18T14:45:12.386Z,94.17
2022-09-18T14:47:44.349Z,93.28
2022-09-18T14:50:31.763Z,92.86
2022-09-18T14:53:01.219Z,92.39
2022-09-18T14:55:41.912Z,92.82
2022-09-18T14:58:14.677Z,92.89
2022-09-18T15:00:41.612Z,93.18
2022-09-18T15:03:18.484Z,93.49
2022-09-18T15:05:52.224Z,94.31
2022-09-18T15:08:26.482Z,93.87
2022-09-18T15:10:53.336Z,93.13
2022-09-18T15:13:21.731Z,91.86
2022-09-18T15:15:58.321Z,92.38
2022-09-18T15:18:27.529Z,93.31
2022-09-18T15:20:56.946Z,91.69
2022-09-18T15:23:29.021Z,92.14
2022-09-18T15:25:59.616Z,91.85
2022-09-18T15:28:29.544Z,92.66
2022-09-18T15:31:00.863Z,92.54
2022-09-18T15:33:27.811Z,93.33
2022-09-18T15:35:55.746Z,93.78
2022-09-18T15:38:39.368Z,93.80
2022-09-18T15:41:29.364Z,94.15
2022-09-18T15:43:55.755Z,94.62
2022-09-18T15:46:26.887Z,97.21
2022-09-18T15:48:56.168Z,97.91
2022-09-18T15:51:30.122Z,99.83
2022-09-18T15:54:16.696Z,100.00
2022-09-18T15:56:58.747Z,100.00
2022-09-18T15:59:30.903Z,100.00
2022-09-18T16:01:59.160Z,100.00
2022-09-18T16:04:33.391Z,100.00
2022-09-18T16:07:06.536Z,100.00
2022-09-18T16:09:36.787Z,100.00
2022-09-18T16:12:23.132Z,100.00
2022-09-18T16:15:18.684Z,100.00
2022-09-18T16:17:44.978Z,100.00
2022-09-18T16:20:34.366Z,100.00
2022-09-18T16:23:24.469Z,100.00
2022-09-18T16:26:10.793Z,100.00
2022-09-18T16:28:58.736Z,100.00
2022-09-18T16:31:28.926Z,100.00
2022-09-18T16:33:57.222Z,100.00
2022-09-18T16:36:25.603Z,100.00
2022-09-18T16:38:52.037Z,100.00
2022-09-18T16:41:18.391Z,100.00
2022-09-18T16:43:44.746Z,100.00
2022-09-18T16:46:12.743Z,100.00
2022-09-18T16:48:39.999Z,100.00
2022-09-18T16:51:06.349Z,100.00
2022-09-18T16:53:35.035Z,100.00
2022-09-18T16:56:02.984Z,100.00
2022-09-18T16:58:29.972Z,100.00
2022-09-18T17:00:57.301Z,100.00
2022-09-18T17:03:25.919Z,100.00
2022-09-18T17:05:52.287Z,100.00
2022-09-18T17:08:18.646Z,100.00
2022-09-18T17:10:45.407Z,100.00
2022-09-18T17:13:12.659Z,100.00
2022-09-18T17:15:39.059Z,100.00
2022-09-18T17:18:05.556Z,100.00
2022-09-18T17:20:33.028Z,100.00
2022-09-18T17:22:59.490Z,100.00
2022-09-18T17:25:25.958Z,100.00
2022-09-18T17:27:52.721Z,100.00
2022-09-18T17:30:20.164Z,100.00
2022-09-18T17:32:48.347Z,100.00
2022-09-18T17:35:16.129Z,100.00
2022-09-18T17:37:43.711Z,100.00
2022-09-18T17:40:10.814Z,100.00
2022-09-18T17:42:38.131Z,100.00
2022-09-18T17:45:05.697Z,100.00
2022-09-18T17:47:32.068Z,100.00
2022-09-18T17:49:58.478Z,100.00
2022-09-18T17:52:24.856Z,100.00
2022-09-18T17:54:51.306Z,100.00
2022-09-18T17:57:17.619Z,100.00
2022-09-18T17:59:44.452Z,100.00
2022-09-18T18:02:12.648Z,100.00
2022-09-18T18:04:39.058Z,100.00
2022-09-18T18:07:06.158Z,100.00
2022-09-18T18:09:35.405Z,100.00
2022-09-18T18:12:02.000Z,100.00
2022-09-18T18:14:29.018Z,100.00
2022-09-18T18:16:55.344Z,100.00
2022-09-18T18:19:21.819Z,100.00
2022-09-18T18:21:48.208Z,100.00
2022-09-18T18:24:17.102Z,100.00
2022-09-18T18:26:44.547Z,100.00
2022-09-18T18:29:18.028Z,100.00
2022-09-18T18:31:45.167Z,100.00
2022-09-18T18:34:12.464Z,100.00
2022-09-18T18:36:41.302Z,100.00
2022-09-18T18:39:11.908Z,100.00
2022-09-18T18:41:39.474Z,100.00
2022-09-18T18:44:06.302Z,99.80
2022-09-18T18:46:36.106Z,99.79
2022-09-18T18:49:08.978Z,99.18
2022-09-18T18:51:44.499Z,99.87
2022-09-18T18:54:11.604Z,100.00
2022-09-18T18:56:38.828Z,100.00
2022-09-18T18:59:08.722Z,99.95
2022-09-18T19:01:35.541Z,100.00
2022-09-18T19:04:06.466Z,100.00
2022-09-18T19:06:34.323Z,100.00
2022-09-18T19:09:02.666Z,100.00
2022-09-18T19:11:31.697Z,100.00
2022-09-18T19:14:00.034Z,100.00
2022-09-18T19:16:29.878Z,100.00
2022-09-18T19:19:00.527Z,100.00
2022-09-18T19:21:28.294Z,100.00
2022-09-18T19:23:56.835Z,100.00
2022-09-18T19:26:24.819Z,100.00
2022-09-18T19:28:54.129Z,100.00
2022-09-18T19:31:21.637Z,100.00
2022-09-18T19:33:50.866Z,100.00
2022-09-18T19:36:17.538Z,100.00
2022-09-18T19:38:43.904Z,100.00
2022-09-18T19:41:20.408Z,100.00
2022-09-18T19:43:46.902Z,100.00
2022-09-18T19:46:22.907Z,100.00
2022-09-18T19:48:49.895Z,100.00
2022-09-18T19:51:16.269Z,100.00
2022-09-18T19:53:42.760Z,100.00
2022-09-18T19:56:27.473Z,100.00
2022-09-18T19:58:57.723Z,100.00
2022-09-18T20:01:24.056Z,100.00
2022-09-18T20:03:53.880Z,100.00
2022-09-18T20:06:20.374Z,100.00
2022-09-18T20:08:46.836Z,100.00
2022-09-18T20:11:13.176Z,100.00
2022-09-18T20:13:39.633Z,100.00
2022-09-18T20:16:08.447Z,100.00
2022-09-18T20:18:34.886Z,100.00
2022-09-18T20:21:09.038Z,100.00
2022-09-18T20:23:36.277Z,100.00
2022-09-18T20:26:15.258Z,100.00
2022-09-18T20:28:42.284Z,100.00
2022-09-18T20:31:15.068Z,100.00
2022-09-18T20:33:41.830Z,100.00
2022-09-18T20:36:11.314Z,100.00
2022-09-18T20:38:40.052Z,100.00
2022-09-18T20:41:13.364Z,100.00
2022-09-18T20:43:41.773Z,100.00
2022-09-18T20:46:14.019Z,100.00
2022-09-18T20:48:41.279Z,100.00
2022-09-18T20:51:10.684Z,100.00
2022-09-18T20:53:41.342Z,100.00
2022-09-18T20:56:09.814Z,100.00
2022-09-18T20:58:39.044Z,100.00
2022-09-18T21:01:17.983Z,100.00
2022-09-18T21:03:45.930Z,99.97
2022-09-18T21:06:23.352Z,99.92
2022-09-18T21:08:53.224Z,98.95
2022-09-18T21:11:24.313Z,99.31
2022-09-18T21:13:56.850Z,99.31
2022-09-18T21:16:25.163Z,100.00
2022-09-18T21:18:57.673Z,99.67
2022-09-18T21:21:25.792Z,98.90
2022-09-18T21:24:01.152Z,98.69
2022-09-18T21:26:42.850Z,100.00
2022-09-18T21:29:18.666Z,100.00
2022-09-18T21:31:46.974Z,100.00
2022-09-18T21:34:26.530Z,100.00
2022-09-18T21:36:57.557Z,100.00
2022-09-18T21:39:24.627Z,100.00
2022-09-18T21:41:53.147Z,100.00
2022-09-18T21:44:24.540Z,100.00
2022-09-18T21:46:51.923Z,100.00
2022-09-18T21:49:19.089Z,100.00
2022-09-18T21:51:46.756Z,100.00
2022-09-18T21:54:17.516Z,100.00
2022-09-18T21:56:51.708Z,100.00
2022-09-18T21:59:22.140Z,100.00
2022-09-18T22:01:55.102Z,100.00
2022-09-18T22:04:27.600Z,100.00
2022-09-18T22:06:56.970Z,100.00
2022-09-18T22:09:28.788Z,100.00
2022-09-18T22:11:56.256Z,100.00
2022-09-18T22:14:29.376Z,100.00
2022-09-18T22:16:56.316Z,100.00
2022-09-18T22:19:22.941Z,100.00
2022-09-18T22:21:50.786Z,100.00
2022-09-18T22:24:20.272Z,100.00
2022-09-18T22:26:49.464Z,100.00
2022-09-18T22:29:23.773Z,100.00
2022-09-18T22:31:51.248Z,100.00
2022-09-18T22:34:21.075Z,100.00
2022-09-18T22:36:48.062Z,100.00
2022-09-18T22:39:16.680Z,100.00
2022-09-18T22:41:43.912Z,100.00
2022-09-18T22:44:10.924Z,100.00
2022-09-18T22:46:39.294Z,100.00
2022-09-18T22:49:08.633Z,100.00
2022-09-18T22:51:35.460Z,100.00
2022-09-18T22:54:07.496Z,100.00
2022-09-18T22:56:39.457Z,100.00
2022-09-18T22:59:07.075Z,100.00
2022-09-18T23:01:46.201Z,100.00
2022-09-18T23:04:13.356Z,100.00
2022-09-18T23:06:40.280Z,100.00
2022-09-18T23:09:07.442Z,100.00
2022-09-18T23:11:34.755Z,100.00
2022-09-18T23:14:04.316Z,100.00
2022-09-18T23:16:33.065Z,100.00
2022-09-18T23:19:05.455Z,100.00
2022-09-18T23:21:36.120Z,100.00
2022-09-18T23:24:08.871Z,100.00
2022-09-18T23:26:40.751Z,100.00
2022-09-18T23:29:10.644Z,100.00
2022-09-18T23:31:41.075Z,100.00
2022-09-18T23:34:12.390Z,100.00
2022-09-18T23:36:39.978Z,100.00
2022-09-18T23:39:12.419Z,100.00
2022-09-18T23:41:38.969Z,100.00
2022-09-18T23:44:08.204Z,100.00
2022-09-18T23:46:35.150Z,100.00
2022-09-18T23:49:01.735Z,100.00
2022-09-18T23:51:33.560Z,100.00
2022-09-18T23:54:01.587Z,100.00
2022-09-18T23:56:31.113Z,100.00
2022-09-18T23:59:00.852Z,100.00
